Time;durP1;ratioP1;P1;durP2;ratioP2;P2;SDS_P1;SDS_P2;PMS_P1;PMS_P2;Temp;Humidity;BMP_temperature;BMP_pressure;BME280_temperature;BME280_humidity;BME280_pressure;Samples;Min_cycle;Max_cycle;Signal;HPM_P1;HPM_P2
2022/12/17 13:05:58;;;;;;;43.50;20.77;;;;;;;-0.21;63.82;100527.25;345541;28;1548;-73
2022/12/17 13:06:11;;;;;;;43.17;20.63;;;;;;;-0.15;64.12;100531.66;345637;28;1690;-74
2022/12/17 13:06:51;;;;;;;42.78;20.52;;;;;;;-0.06;63.90;100530.19;343625;28;2302;-73
2022/12/17 13:07:04;;;;;;;41.53;21.05;;;;;;;-0.16;63.79;100530.78;344467;28;1873;-74
2022/12/17 13:07:29;;;;;;;43.95;21.00;;;;;;;-0.18;63.69;100532.44;342523;28;1644;-73
2022/12/17 13:07:41;;;;;;;45.55;20.92;;;;;;;-0.28;64.78;100530.44;343002;28;1043;-73
2022/12/17 13:08:17;;;;;;;46.33;21.95;;;;;;;-0.20;64.05;100534.09;342889;28;1798;-74
2022/12/17 13:08:32;;;;;;;43.13;21.73;;;;;;;-0.39;64.66;100537.00;344751;28;1242;-74
2022/12/17 13:08:44;;;;;;;41.38;21.58;;;;;;;-0.36;64.43;100532.84;344717;28;1064;-72
2022/12/17 13:09:24;;;;;;;41.85;21.00;;;;;;;-0.44;65.32;100530.09;344588;28;1206;-73
2022/12/17 13:09:49;;;;;;;44.53;21.70;;;;;;;-0.38;65.05;100531.03;340481;29;1325;-73
2022/12/17 13:10:01;;;;;;;44.92;21.67;;;;;;;-0.44;64.61;100530.09;344953;28;1191;-73
2022/12/17 13:10:33;;;;;;;45.33;20.85;;;;;;;-0.48;64.08;100532.53;345955;28;1278;-73
2022/12/17 13:10:46;;;;;;;47.45;21.23;;;;;;;-0.63;64.28;100527.84;344660;28;1043;-74
2022/12/17 13:11:26;;;;;;;43.53;21.58;;;;;;;-0.68;64.75;100524.34;345088;28;1233;-73
2022/12/17 13:11:38;;;;;;;44.85;21.08;;;;;;;-0.64;64.28;100527.00;344870;28;1219;-73
2022/12/17 13:12:03;;;;;;;44.25;21.35;;;;;;;-0.52;64.53;100525.59;344624;28;1217;-72
2022/12/17 13:12:29;;;;;;;43.15;20.98;;;;;;;-0.38;64.85;100528.50;343316;28;1020;-73
2022/12/17 13:12:46;;;;;;;39.75;20.55;;;;;;;-0.55;64.39;100522.97;342112;28;1069;-73
2022/12/17 13:13:11;;;;;;;40.63;20.85;;;;;;;-0.59;63.89;100528.81;341784;28;2359;-75
2022/12/17 13:13:32;;;;;;;41.30;21.77;;;;;;;-0.70;64.37;100523.44;340897;29;1270;-72
2022/12/17 13:13:54;;;;;;;44.67;21.45;;;;;;;-0.69;64.80;100525.13;342872;28;2702;-73
2022/12/17 13:14:14;;;;;;;44.40;21.45;;;;;;;-0.64;65.08;100521.91;342706;28;2407;-73
2022/12/17 13:14:53;;;;;;;46.75;21.65;;;;;;;-0.58;64.74;100523.75;343859;28;1027;-73
2022/12/17 13:15:05;;;;;;;43.17;21.30;;;;;;;-0.59;63.80;100522.00;344903;28;1020;-73
2022/12/17 13:15:24;;;;;;;42.65;21.33;;;;;;;-0.64;63.74;100521.91;344495;28;1608;-75
2022/12/17 13:15:47;;;;;;;41.13;21.00;;;;;;;-0.65;64.10;100524.41;343666;28;1072;-73
2022/12/17 13:16:41;;;;;;;41.72;20.75;;;;;;;-0.55;64.29;100522.97;343675;28;1008;-73
2022/12/17 13:16:59;;;;;;;44.45;21.85;;;;;;;-0.41;65.01;100525.03;346212;28;1179;-73
2022/12/17 13:17:17;;;;;;;41.97;21.48;;;;;;;-0.36;65.13;100526.84;346499;28;1011;-73
2022/12/17 13:17:44;;;;;;;42.67;21.85;;;;;;;-0.34;64.67;100526.06;346538;28;1247;-73
2022/12/17 13:18:13;;;;;;;45.40;21.92;;;;;;;-0.28;64.84;100528.78;346356;28;1597;-73
2022/12/17 13:18:32;;;;;;;41.05;20.77;;;;;;;-0.07;64.89;100525.88;346401;28;1334;-73
2022/12/17 13:18:45;;;;;;;41.33;20.88;;;;;;;-0.01;64.51;100526.03;344967;28;977;-73
2022/12/17 13:19:18;;;;;;;41.88;21.20;;;;;;;-0.14;63.94;100524.03;345454;28;1289;-73
2022/12/17 13:19:30;;;;;;;43.10;20.70;;;;;;;-0.16;64.55;100519.69;345237;28;1037;-73
2022/12/17 13:19:57;;;;;;;42.38;20.77;;;;;;;-0.12;63.99;100516.38;343658;28;1048;-73
2022/12/17 13:20:29;;;;;;;41.40;21.38;;;;;;;-0.24;64.31;100522.06;344334;28;1257;-73
2022/12/17 13:20:41;;;;;;;41.10;20.60;;;;;;;-0.17;64.33;100523.94;343736;28;1250;-73
2022/12/17 13:21:16;;;;;;;42.20;21.50;;;;;;;-0.03;64.30;100522.59;344102;28;745;-73
2022/12/17 13:21:30;;;;;;;41.83;20.67;;;;;;;0.01;64.13;100525.22;339744;29;1146;-73
2022/12/17 13:21:42;;;;;;;41.25;20.52;;;;;;;-0.05;63.47;100528.50;341635;28;1218;-73
2022/12/17 13:21:54;;;;;;;41.78;20.48;;;;;;;-0.09;64.39;100522.44;344679;28;1215;-73
2022/12/17 13:22:15;;;;;;;42.42;20.73;;;;;;;-0.28;64.25;100521.13;345008;28;1181;-73
2022/12/17 13:22:34;;;;;;;44.42;20.52;;;;;;;-0.19;64.28;100525.59;345103;28;1343;-73
2022/12/17 13:22:52;;;;;;;43.90;21.00;;;;;;;-0.16;64.89;100520.56;344992;28;1137;-73
2022/12/17 13:23:10;;;;;;;42.15;21.00;;;;;;;-0.10;64.21;100525.84;344359;28;1875;-73
2022/12/17 13:23:27;;;;;;;42.03;20.33;;;;;;;-0.16;64.12;100524.78;343197;28;1141;-73
2022/12/17 13:23:39;;;;;;;42.42;21.27;;;;;;;-0.11;64.92;100521.53;344729;28;1294;-73
2022/12/17 13:23:52;;;;;;;41.10;21.35;;;;;;;-0.08;64.26;100520.72;345056;28;1063;-73
2022/12/17 13:24:11;;;;;;;42.47;21.02;;;;;;;-0.05;64.02;100519.13;345200;28;1228;-73
2022/12/17 13:24:25;;;;;;;42.25;21.13;;;;;;;-0.03;64.45;100522.59;345152;28;1268;-73
2022/12/17 13:24:37;;;;;;;40.85;20.63;;;;;;;-0.03;63.74;100512.34;344832;28;1019;-73
2022/12/17 13:24:52;;;;;;;40.53;20.20;;;;;;;0.02;63.67;100514.16;344978;28;1072;-73
2022/12/17 13:25:17;;;;;;;41.38;20.58;;;;;;;0.09;63.66;100516.06;345113;28;1107;-73
2022/12/17 13:25:29;;;;;;;40.40;20.65;;;;;;;0.11;63.69;100519.50;344866;28;1114;-74
2022/12/17 13:25:41;;;;;;;40.45;20.52;;;;;;;0.13;63.76;100516.16;345190;28;1035;-73
2022/12/17 13:26:13;;;;;;;41.05;20.70;;;;;;;0.25;63.73;100513.00;345091;28;1020;-73
2022/12/17 13:26:40;;;;;;;42.50;21.05;;;;;;;0.38;63.07;100514.16;345008;28;1200;-73
2022/12/17 13:26:52;;;;;;;42.30;20.52;;;;;;;0.42;62.78;100510.81;344549;28;1886;-73
2022/12/17 13:27:33;;;;;;;40.95;20.63;;;;;;;0.55;62.85;100517.09;345542;28;1329;-73
2022/12/17 13:27:46;;;;;;;40.22;20.70;;;;;;;0.57;62.49;100515.44;346326;28;1067;-72
2022/12/17 13:27:58;;;;;;;38.05;20.25;;;;;;;0.56;62.33;100514.59;346495;28;1067;-72
2022/12/17 13:28:28;;;;;;;38.00;20.00;;;;;;;0.63;62.45;100515.56;346454;28;1069;-72
2022/12/17 13:28:41;;;;;;;40.72;20.85;;;;;;;0.62;62.12;100518.09;346515;28;1050;-72
2022/12/17 13:29:10;;;;;;;40.20;20.08;;;;;;;0.64;62.21;100517.28;346788;28;807;-72
2022/12/17 13:29:23;;;;;;;40.72;20.67;;;;;;;0.67;61.68;100511.38;346285;28;1324;-72
2022/12/17 13:29:36;;;;;;;42.17;20.48;;;;;;;0.62;61.63;100516.38;346478;28;1077;-72
2022/12/17 13:29:48;;;;;;;42.67;20.77;;;;;;;0.64;61.80;100517.28;346306;28;1050;-72
2022/12/17 13:30:28;;;;;;;41.67;21.20;;;;;;;0.63;62.13;100509.59;346186;28;1250;-72
2022/12/17 13:30:40;;;;;;;39.22;19.67;;;;;;;0.64;61.47;100517.28;346788;28;851;-72
2022/12/17 13:31:04;;;;;;;38.65;19.80;;;;;;;0.68;61.68;100513.97;346512;28;1241;-73
2022/12/17 13:31:24;;;;;;;42.08;20.92;;;;;;;0.67;62.20;100514.81;345997;28;1333;-73
2022/12/17 13:32:20;;;;;;;41.10;20.65;;;;;;;0.75;61.93;100514.97;344499;28;4270;-73
2022/12/17 13:32:46;;;;;;;38.75;20.40;;;;;;;0.41;61.37;100510.81;343571;28;1011;-73
2022/12/17 13:33:03;;;;;;;39.05;19.80;;;;;;;0.18;61.38;100516.25;343534;28;1012;-73
2022/12/17 13:33:28;;;;;;;39.17;19.83;;;;;;;-0.01;61.29;100508.16;344198;28;1217;-73
2022/12/17 13:34:18;;;;;;;41.35;20.42;;;;;;;-0.06;62.24;100512.31;344851;28;1074;-73
2022/12/17 13:35:06;;;;;;;41.13;20.98;;;;;;;-0.30;63.38;100506.56;344385;28;1186;-72
2022/12/17 13:35:45;;;;;;;43.58;21.92;;;;;;;-0.16;63.66;100515.47;342187;28;1033;-72
2022/12/17 13:36:24;;;;;;;43.38;21.38;;;;;;;-0.05;63.26;100514.00;342388;28;1084;-73
2022/12/17 13:36:56;;;;;;;42.30;22.38;;;;;;;-0.03;63.29;100514.06;343209;28;1236;-74
2022/12/17 13:37:20;;;;;;;44.30;22.17;;;;;;;0.12;63.08;100516.09;343288;28;1259;-73
2022/12/17 13:37:53;;;;;;;46.60;23.00;;;;;;;0.20;63.31;100514.59;344769;28;1297;-73
2022/12/17 13:38:32;;;;;;;49.05;23.58;;;;;;;0.27;62.61;100519.03;344388;28;1294;-73
2022/12/17 13:39:09;;;;;;;45.20;23.05;;;;;;;0.42;62.20;100515.09;344861;28;1238;-73
2022/12/17 13:39:44;;;;;;;48.33;23.13;;;;;;;0.49;62.06;100516.97;344200;28;1275;-73
2022/12/17 13:40:21;;;;;;;46.58;22.85;;;;;;;0.50;61.73;100508.44;339511;29;1229;-73
2022/12/17 13:40:42;;;;;;;47.10;24.08;;;;;;;0.54;62.49;100515.34;341780;29;861;-74
2022/12/17 13:41:10;;;;;;;51.47;24.70;;;;;;;0.38;61.96;100514.16;340024;29;1028;-74
2022/12/17 13:41:33;;;;;;;49.13;23.95;;;;;;;0.38;62.05;100509.03;343231;28;1220;-72
2022/12/17 13:41:45;;;;;;;47.75;23.58;;;;;;;0.37;62.16;100515.84;344987;28;1161;-72
2022/12/17 13:41:58;;;;;;;47.47;23.85;;;;;;;0.36;62.62;100516.69;344866;28;1242;-72
2022/12/17 13:42:30;;;;;;;47.30;23.40;;;;;;;0.24;62.37;100516.38;343605;28;1102;-72
2022/12/17 13:42:44;;;;;;;49.35;23.15;;;;;;;0.01;62.42;100507.34;342483;28;1195;-73
2022/12/17 13:42:56;;;;;;;42.85;22.25;;;;;;;-0.15;62.57;100509.50;343243;28;1119;-73
2022/12/17 13:43:23;;;;;;;41.45;21.75;;;;;;;-0.34;62.96;100510.75;343456;28;1291;-73
2022/12/17 13:43:43;;;;;;;41.08;21.65;;;;;;;-0.49;63.61;100513.75;343315;28;1039;-74
2022/12/17 13:43:59;;;;;;;41.40;21.15;;;;;;;-0.45;64.03;100512.16;343773;28;1334;-74
2022/12/17 13:44:29;;;;;;;41.28;20.98;;;;;;;-0.69;63.74;100513.22;344428;28;1071;-74
2022/12/17 13:44:45;;;;;;;42.30;20.88;;;;;;;-0.68;64.03;100506.47;345124;28;1198;-72
2022/12/17 13:44:58;;;;;;;42.45;21.15;;;;;;;-0.83;63.60;100512.84;345143;28;1043;-72
2022/12/17 13:45:16;;;;;;;41.78;21.33;;;;;;;-0.94;64.17;100515.97;344270;28;1076;-72
2022/12/17 13:45:35;;;;;;;41.47;21.85;;;;;;;-0.97;63.56;100516.72;343611;28;1259;-72
2022/12/17 13:45:51;;;;;;;41.45;21.90;;;;;;;-1.03;63.72;100517.44;343606;28;1291;-73
2022/12/17 13:46:03;;;;;;;43.33;22.40;;;;;;;-1.05;64.01;100513.09;343650;28;1055;-73
2022/12/17 13:46:43;;;;;;;42.72;22.35;;;;;;;-1.16;64.27;100517.03;343566;28;1934;-73
2022/12/17 13:46:59;;;;;;;48.38;23.27;;;;;;;-1.30;64.97;100509.84;340568;29;1045;-72
2022/12/17 13:47:29;;;;;;;48.53;23.52;;;;;;;-1.24;65.32;100512.56;343151;28;1406;-72
2022/12/17 13:47:41;;;;;;;43.60;22.48;;;;;;;-1.18;65.20;100516.13;344466;28;3244;-72
2022/12/17 13:47:55;;;;;;;44.80;22.70;;;;;;;-1.14;65.20;100518.81;342674;28;4400;-72
2022/12/17 13:48:22;;;;;;;46.83;22.58;;;;;;;-1.09;65.47;100521.47;344766;28;2719;-72
2022/12/17 13:48:34;;;;;;;41.17;21.17;;;;;;;-1.04;65.03;100519.94;344898;28;2672;-73
2022/12/17 13:49:03;;;;;;;43.72;22.25;;;;;;;-1.12;65.21;100516.31;343249;28;1857;-73
2022/12/17 13:49:19;;;;;;;47.15;23.70;;;;;;;-1.26;66.35;100518.44;343201;28;1055;-73
2022/12/17 13:49:32;;;;;;;46.67;23.23;;;;;;;-1.17;66.50;100517.84;343096;28;4242;-73
2022/12/17 13:49:49;;;;;;;47.10;22.70;;;;;;;-1.23;66.14;100514.31;342337;28;1067;-73
2022/12/17 13:50:23;;;;;;;46.03;23.35;;;;;;;-1.20;66.32;100516.06;342801;28;2141;-72
2022/12/17 13:50:54;;;;;;;44.53;22.38;;;;;;;-1.37;66.68;100520.66;342895;28;1044;-72
2022/12/17 13:51:06;;;;;;;44.97;21.90;;;;;;;-1.31;66.52;100522.53;343441;28;1198;-72
2022/12/17 13:51:19;;;;;;;45.88;21.77;;;;;;;-1.27;66.69;100516.72;344532;28;1191;-72
2022/12/17 13:51:34;;;;;;;46.80;21.92;;;;;;;-1.16;66.61;100519.59;346430;28;1202;-72
2022/12/17 13:51:46;;;;;;;44.97;22.33;;;;;;;-1.12;66.63;100521.41;346304;28;1182;-73
2022/12/17 13:52:04;;;;;;;43.47;22.45;;;;;;;-1.08;65.91;100520.66;345741;28;1907;-73
2022/12/17 13:52:25;;;;;;;42.33;21.70;;;;;;;-0.98;66.57;100515.00;343423;28;1182;-73
2022/12/17 13:52:37;;;;;;;42.67;21.58;;;;;;;-0.93;65.79;100518.53;343697;28;975;-73
2022/12/17 13:52:49;;;;;;;42.53;21.63;;;;;;;-0.90;65.75;100523.75;342141;28;1235;-73
2022/12/17 13:53:11;;;;;;;41.95;21.05;;;;;;;-0.82;65.29;100518.84;342719;28;749;-72
2022/12/17 13:53:25;;;;;;;45.42;20.85;;;;;;;-0.85;65.52;100522.16;343355;28;1250;-72
2022/12/17 13:53:37;;;;;;;45.90;21.30;;;;;;;-0.85;65.20;100521.31;342337;28;1080;-72
2022/12/17 13:53:55;;;;;;;45.92;21.67;;;;;;;-0.82;65.40;100518.84;342556;28;742;-72
2022/12/17 13:54:17;;;;;;;45.25;21.60;;;;;;;-0.81;65.60;100518.88;341243;29;1068;-72
2022/12/17 13:54:29;;;;;;;46.00;22.60;;;;;;;-0.88;65.68;100521.22;342277;28;1198;-73
2022/12/17 13:54:41;;;;;;;50.60;23.98;;;;;;;-0.89;65.64;100524.59;342014;28;1056;-73
2022/12/17 13:55:04;;;;;;;53.80;25.35;;;;;;;-0.99;65.72;100520.06;343360;28;1136;-73
2022/12/17 13:55:20;;;;;;;49.90;25.25;;;;;;;-1.08;65.95;100524.09;343733;28;1030;-74
2022/12/17 13:55:32;;;;;;;51.47;25.25;;;;;;;-1.07;65.60;100519.84;343475;28;1051;-74
2022/12/17 13:55:50;;;;;;;53.78;25.83;;;;;;;-1.03;65.84;100519.09;345285;28;730;-74
2022/12/17 13:56:02;;;;;;;53.92;26.10;;;;;;;-0.98;65.75;100525.22;344716;28;1039;-72
2022/12/17 13:56:21;;;;;;;51.85;24.75;;;;;;;-0.90;65.71;100521.19;346030;28;1166;-71
2022/12/17 13:56:35;;;;;;;47.88;23.73;;;;;;;-0.86;65.25;100525.53;346089;28;1625;-71
2022/12/17 13:56:48;;;;;;;47.22;23.90;;;;;;;-0.83;65.51;100520.50;346234;28;1065;-71
2022/12/17 13:57:13;;;;;;;47.40;23.85;;;;;;;-0.71;65.06;100521.69;346101;28;1070;-71
2022/12/17 13:57:25;;;;;;;48.33;23.98;;;;;;;-0.68;64.77;100519.22;346063;28;1284;-72
2022/12/17 13:57:37;;;;;;;49.70;23.60;;;;;;;-0.65;64.82;100516.75;346770;28;748;-73
2022/12/17 13:57:51;;;;;;;47.92;23.15;;;;;;;-0.59;64.96;100524.56;346206;28;1082;-73
2022/12/17 13:58:03;;;;;;;48.95;23.58;;;;;;;-0.54;64.58;100517.91;344721;28;1004;-73
2022/12/17 13:58:30;;;;;;;48.30;23.42;;;;;;;-0.49;64.82;100528.22;344478;28;1039;-73
2022/12/17 13:58:42;;;;;;;48.67;23.02;;;;;;;-0.44;64.62;100524.97;344865;28;1086;-73
2022/12/17 13:58:56;;;;;;;46.47;22.70;;;;;;;-0.44;65.25;100517.31;343855;28;1083;-73
2022/12/17 13:59:22;;;;;;;43.50;22.13;;;;;;;-0.33;64.77;100524.38;343644;28;1124;-72
2022/12/17 13:59:35;;;;;;;44.33;22.63;;;;;;;-0.44;64.59;100519.00;344611;28;1136;-72
2022/12/17 13:59:55;;;;;;;42.33;22.25;;;;;;;-0.59;64.16;100518.59;345169;28;1202;-72
2022/12/17 14:00:19;;;;;;;43.13;22.50;;;;;;;-0.49;63.64;100529.09;344998;28;1020;-72
2022/12/17 14:00:31;;;;;;;48.03;23.60;;;;;;;-0.53;63.94;100518.75;345132;28;1448;-74
2022/12/17 14:00:43;;;;;;;48.33;23.67;;;;;;;-0.56;63.70;100523.75;345070;28;1165;-74
2022/12/17 14:01:28;;;;;;;48.28;23.65;;;;;;;-0.71;63.37;100526.78;345519;28;1153;-74
2022/12/17 14:01:46;;;;;;;46.42;23.75;;;;;;;-0.77;64.01;100526.63;344698;28;1006;-72
2022/12/17 14:01:58;;;;;;;44.40;23.45;;;;;;;-0.92;64.23;100525.38;344161;28;1686;-72
2022/12/17 14:02:42;;;;;;;44.13;22.48;;;;;;;-1.06;64.21;100526.69;345068;28;1176;-72
2022/12/17 14:02:54;;;;;;;47.33;23.33;;;;;;;-1.06;65.18;100531.78;343864;28;1246;-73
2022/12/17 14:03:10;;;;;;;46.90;22.85;;;;;;;-1.05;64.91;100529.28;345138;28;1176;-73
2022/12/17 14:03:23;;;;;;;46.65;22.98;;;;;;;-1.01;65.47;100533.66;344705;28;1286;-73
2022/12/17 14:03:57;;;;;;;46.60;23.63;;;;;;;-0.91;65.51;100532.19;345165;28;1646;-72
2022/12/17 14:04:26;;;;;;;43.75;21.98;;;;;;;-0.85;65.48;100537.47;345020;28;1370;-72
2022/12/17 14:04:39;;;;;;;47.25;23.15;;;;;;;-0.79;65.85;100536.78;344160;28;1207;-72
2022/12/17 14:04:53;;;;;;;44.97;22.40;;;;;;;-0.74;65.67;100539.47;345103;28;999;-72
2022/12/17 14:05:36;;;;;;;42.55;21.60;;;;;;;-0.65;65.15;100532.06;344853;28;1244;-72
2022/12/17 14:05:48;;;;;;;42.97;21.48;;;;;;;-0.57;64.50;100535.69;343786;28;1055;-72
2022/12/17 14:06:01;;;;;;;42.47;21.77;;;;;;;-0.56;64.40;100534.88;343751;28;1184;-72
2022/12/17 14:06:13;;;;;;;40.25;20.83;;;;;;;-0.53;64.58;100534.94;343661;28;1203;-72
2022/12/17 14:06:34;;;;;;;38.83;20.40;;;;;;;-0.46;63.85;100538.53;344741;28;1076;-72
2022/12/17 14:06:46;;;;;;;39.28;21.13;;;;;;;-0.42;64.58;100528.44;343351;28;2931;-72
2022/12/17 14:07:04;;;;;;;39.08;20.73;;;;;;;-0.39;64.86;100534.44;344734;28;3084;-72
2022/12/17 14:07:16;;;;;;;41.17;20.15;;;;;;;-0.34;64.29;100533.75;343899;28;4125;-72
2022/12/17 14:07:29;;;;;;;41.03;20.23;;;;;;;-0.29;64.57;100538.97;345696;28;2499;-72
2022/12/17 14:07:42;;;;;;;39.88;19.90;;;;;;;-0.25;64.13;100535.66;346376;28;1027;-72
2022/12/17 14:07:59;;;;;;;40.45;20.27;;;;;;;-0.24;63.94;100533.16;346017;28;2547;-72
2022/12/17 14:08:16;;;;;;;39.38;20.33;;;;;;;-0.20;63.92;100534.09;346344;28;1192;-72
2022/12/17 14:08:31;;;;;;;40.25;20.33;;;;;;;-0.21;63.72;100540.03;345270;28;1043;-72
2022/12/17 14:08:46;;;;;;;41.10;20.55;;;;;;;-0.20;63.98;100534.09;344797;28;1091;-72
2022/12/17 14:08:59;;;;;;;39.25;20.58;;;;;;;-0.17;63.18;100536.72;345450;28;1217;-72
2022/12/17 14:09:16;;;;;;;37.97;20.65;;;;;;;-0.12;63.88;100536.81;346227;28;1103;-72
2022/12/17 14:09:37;;;;;;;38.75;20.70;;;;;;;-0.05;63.13;100544.69;346465;28;1113;-72
2022/12/17 14:09:49;;;;;;;39.05;19.65;;;;;;;0.00;63.49;100542.25;346535;28;1305;-72
2022/12/17 14:10:03;;;;;;;40.35;19.33;;;;;;;0.02;63.70;100542.28;346194;28;1041;-72
2022/12/17 14:10:17;;;;;;;40.60;20.05;;;;;;;0.05;63.56;100540.66;345238;28;1131;-73
2022/12/17 14:10:30;;;;;;;38.15;20.13;;;;;;;0.07;63.23;100535.59;345244;28;1157;-73
2022/12/17 14:10:51;;;;;;;37.70;19.77;;;;;;;0.06;62.51;100537.31;344749;28;1247;-73
2022/12/17 14:12:23;;;;;;;39.83;20.70;;;;;;;-0.22;62.57;100544.28;345319;28;860;-73
2022/12/17 14:12:35;;;;;;;40.92;21.30;;;;;;;-0.35;63.60;100546.47;346316;28;1105;-73
2022/12/17 14:12:48;;;;;;;40.05;21.05;;;;;;;-0.45;63.50;100543.66;346629;28;939;-73
2022/12/17 14:13:09;;;;;;;41.42;20.92;;;;;;;-0.37;63.74;100548.13;345024;28;1271;-73
2022/12/17 14:13:21;;;;;;;42.97;21.55;;;;;;;-0.36;63.35;100543.06;345185;28;1107;-73
2022/12/17 14:13:35;;;;;;;43.17;22.15;;;;;;;-0.45;64.30;100542.81;343545;28;1119;-73
2022/12/17 14:13:49;;;;;;;40.50;21.42;;;;;;;-0.51;63.80;100537.53;343470;28;1280;-73
2022/12/17 14:14:01;;;;;;;42.58;21.70;;;;;;;-0.64;64.73;100551.69;342656;28;752;-73
2022/12/17 14:14:29;;;;;;;45.67;22.60;;;;;;;-0.62;64.43;100544.91;342170;28;1020;-73
2022/12/17 14:14:47;;;;;;;42.63;21.35;;;;;;;-0.68;64.34;100545.63;342163;28;1204;-73
2022/12/17 14:15:07;;;;;;;45.05;22.10;;;;;;;-0.65;64.26;100540.56;342219;28;1274;-73
2022/12/17 14:15:24;;;;;;;44.55;21.58;;;;;;;-0.65;64.73;100549.94;342403;28;1143;-73
2022/12/17 14:15:36;;;;;;;41.80;21.63;;;;;;;-0.76;64.25;100546.25;343085;28;1179;-73
2022/12/17 14:15:51;;;;;;;43.08;21.65;;;;;;;-0.82;64.27;100542.69;343436;28;1323;-73
2022/12/17 14:16:04;;;;;;;44.55;22.23;;;;;;;-0.87;64.68;100549.31;344776;28;1011;-73
2022/12/17 14:16:17;;;;;;;44.03;22.27;;;;;;;-0.84;64.93;100541.78;345086;28;1218;-73
2022/12/17 14:16:30;;;;;;;41.75;21.00;;;;;;;-0.87;64.31;100551.88;344965;28;1028;-73
2022/12/17 14:16:43;;;;;;;43.80;21.15;;;;;;;-0.97;64.04;100549.91;344815;28;1078;-73
2022/12/17 14:17:02;;;;;;;42.33;21.63;;;;;;;-0.95;64.73;100548.25;346011;28;1247;-73
2022/12/17 14:17:28;;;;;;;38.42;20.88;;;;;;;-0.92;64.28;100548.34;345191;28;1039;-73
2022/12/17 14:17:44;;;;;;;40.30;21.50;;;;;;;-0.89;65.12;100545.00;345437;28;1635;-73
2022/12/17 14:17:57;;;;;;;42.92;22.35;;;;;;;-0.85;64.83;100546.81;345008;28;1305;-73
2022/12/17 14:18:15;;;;;;;42.60;22.10;;;;;;;-0.82;65.01;100546.94;344661;28;1043;-73
2022/12/17 14:18:30;;;;;;;41.47;21.73;;;;;;;-0.83;65.59;100548.59;343749;28;1056;-73
2022/12/17 14:18:53;;;;;;;41.90;21.35;;;;;;;-0.77;65.32;100547.03;344715;28;1690;-73
2022/12/17 14:19:33;;;;;;;47.47;21.98;;;;;;;-0.67;64.84;100549.03;341019;29;999;-73
2022/12/17 14:19:46;;;;;;;47.30;22.25;;;;;;;-0.59;64.73;100546.69;342058;28;1345;-71
2022/12/17 14:20:03;;;;;;;43.53;21.33;;;;;;;-0.58;64.03;100545.84;342424;28;1075;-71
2022/12/17 14:20:20;;;;;;;42.15;20.98;;;;;;;-0.61;64.74;100551.75;342384;28;1672;-71
2022/12/17 14:20:34;;;;;;;42.92;21.55;;;;;;;-0.66;63.96;100554.19;342489;28;1527;-73
2022/12/17 14:20:51;;;;;;;43.80;22.30;;;;;;;-0.74;64.45;100550.56;342124;28;1228;-73
2022/12/17 14:21:04;;;;;;;45.20;22.40;;;;;;;-0.62;64.43;100544.91;343727;28;1630;-73
2022/12/17 14:21:17;;;;;;;45.17;21.85;;;;;;;-0.64;64.45;100549.13;343363;28;1734;-73
2022/12/17 14:21:29;;;;;;;45.30;21.45;;;;;;;-0.56;64.49;100550.19;343119;28;1899;-73
2022/12/17 14:21:41;;;;;;;41.35;20.65;;;;;;;-0.71;64.13;100542.09;343400;28;1238;-73
2022/12/17 14:21:54;;;;;;;41.97;20.95;;;;;;;-0.67;64.54;100554.13;345260;28;1175;-72
2022/12/17 14:22:19;;;;;;;41.97;20.83;;;;;;;-0.65;64.73;100544.81;344943;28;1320;-72
2022/12/17 14:22:36;;;;;;;45.55;21.38;;;;;;;-0.67;64.60;100552.44;343552;28;1610;-72
2022/12/17 14:22:58;;;;;;;42.20;21.33;;;;;;;-0.66;64.44;100554.19;345296;28;1779;-73
2022/12/17 14:23:32;;;;;;;42.05;21.98;;;;;;;-0.95;64.40;100548.25;345414;28;844;-72
2022/12/17 14:23:46;;;;;;;43.53;21.75;;;;;;;-0.87;65.22;100546.78;344924;28;1082;-75
2022/12/17 14:23:59;;;;;;;44.45;22.55;;;;;;;-0.83;65.36;100546.03;345319;28;1628;-73
2022/12/17 14:24:12;;;;;;;48.90;23.50;;;;;;;-0.81;65.25;100549.50;346346;28;1066;-73
2022/12/17 14:24:28;;;;;;;49.92;23.83;;;;;;;-0.73;65.14;100547.16;346153;28;1267;-73
2022/12/17 14:24:40;;;;;;;45.75;23.10;;;;;;;-0.71;64.75;100547.22;346060;28;1225;-73
2022/12/17 14:24:52;;;;;;;44.83;22.73;;;;;;;-0.72;64.85;100545.50;346450;28;754;-73
2022/12/17 14:25:13;;;;;;;44.92;22.42;;;;;;;-0.65;64.79;100544.81;345219;28;2012;-73
2022/12/17 14:25:31;;;;;;;43.40;21.70;;;;;;;-0.67;65.00;100551.56;345231;28;1599;-73
2022/12/17 14:25:43;;;;;;;45.45;22.33;;;;;;;-0.82;64.47;100542.69;345520;28;1063;-73
2022/12/17 14:25:56;;;;;;;46.08;22.08;;;;;;;-0.87;65.20;100544.22;343630;28;1167;-73
2022/12/17 14:26:10;;;;;;;44.63;21.45;;;;;;;-0.95;64.45;100545.69;343941;28;1644;-73
2022/12/17 14:26:22;;;;;;;42.25;21.08;;;;;;;-0.93;64.69;100544.06;343886;28;1895;-73
2022/12/17 14:26:34;;;;;;;43.33;21.30;;;;;;;-0.98;64.77;100545.63;344795;28;1514;-73
2022/12/17 14:26:50;;;;;;;43.38;21.88;;;;;;;-0.94;64.88;100542.34;345213;28;1128;-73
2022/12/17 14:27:02;;;;;;;40.63;21.65;;;;;;;-1.00;64.84;100537.06;345047;28;1782;-73
2022/12/17 14:27:29;;;;;;;40.70;21.67;;;;;;;-1.08;65.38;100535.97;343951;28;1856;-73
2022/12/17 14:28:02;;;;;;;43.92;21.40;;;;;;;-1.12;64.90;100537.56;343828;28;1063;-73
2022/12/17 14:28:43;;;;;;;43.78;21.83;;;;;;;-1.24;64.88;100548.28;343543;28;1064;-73
2022/12/17 14:29:11;;;;;;;43.78;22.08;;;;;;;-1.24;65.24;100543.19;343520;28;1027;-73
2022/12/17 14:29:27;;;;;;;43.28;21.73;;;;;;;-1.30;65.90;100540.44;345352;28;1551;-73
2022/12/17 14:29:45;;;;;;;43.83;22.27;;;;;;;-1.38;65.65;100549.56;343551;28;948;-73
2022/12/17 14:29:57;;;;;;;43.95;22.77;;;;;;;-1.37;65.70;100542.75;344321;28;1661;-73
2022/12/17 14:30:40;;;;;;;44.08;22.45;;;;;;;-1.34;65.80;100546.28;344919;28;1197;-73
2022/12/17 14:31:18;;;;;;;46.50;22.00;;;;;;;-1.15;66.09;100542.56;342292;28;1485;-73
2022/12/17 14:31:52;;;;;;;41.53;21.15;;;;;;;-1.08;66.10;100548.75;344741;28;1762;-73
2022/12/17 14:32:24;;;;;;;43.75;21.45;;;;;;;-1.30;65.57;100547.25;345096;28;1819;-73
2022/12/17 14:32:37;;;;;;;40.42;21.42;;;;;;;-1.34;65.28;100546.28;343649;28;1063;-74
2022/12/17 14:32:49;;;;;;;40.10;20.90;;;;;;;-1.33;65.75;100542.88;344041;28;1174;-74
2022/12/17 14:33:01;;;;;;;39.97;20.75;;;;;;;-1.41;65.51;100546.91;345286;28;1016;-74
2022/12/17 14:33:35;;;;;;;39.72;20.85;;;;;;;-1.61;66.08;100547.19;345170;28;1110;-74
2022/12/17 14:34:00;;;;;;;43.15;21.83;;;;;;;-1.64;66.20;100541.97;344656;28;1174;-74
2022/12/17 14:34:11;;;;;;;46.72;23.02;;;;;;;-1.62;66.37;100540.34;344604;28;1690;-74
2022/12/17 14:34:24;;;;;;;46.28;22.17;;;;;;;-1.59;66.64;100543.78;345397;28;1498;-74
2022/12/17 14:34:40;;;;;;;44.78;21.88;;;;;;;-1.63;66.66;100548.81;344940;28;1160;-74
2022/12/17 14:34:52;;;;;;;45.40;22.15;;;;;;;-1.68;66.06;100542.69;344495;28;1083;-74
2022/12/17 14:35:28;;;;;;;44.03;22.10;;;;;;;-1.81;67.20;100546.56;346044;28;1712;-73
2022/12/17 14:35:40;;;;;;;43.35;22.00;;;;;;;-1.73;66.68;100546.81;344668;28;1709;-72
2022/12/17 14:36:05;;;;;;;43.08;22.00;;;;;;;-1.70;66.65;100549.44;345551;28;1580;-72
2022/12/17 14:36:22;;;;;;;46.00;22.42;;;;;;;-1.76;67.01;100550.94;346172;28;1877;-72
2022/12/17 14:36:36;;;;;;;46.20;22.33;;;;;;;-1.80;67.12;100552.50;346269;28;1227;-72
2022/12/17 14:36:57;;;;;;;45.95;22.48;;;;;;;-1.95;67.26;100549.44;346136;28;1676;-72
2022/12/17 14:37:19;;;;;;;47.38;23.10;;;;;;;-2.01;67.56;100550.16;345662;28;1859;-72
2022/12/17 14:37:31;;;;;;;45.70;22.45;;;;;;;-2.01;68.37;100551.00;344017;28;841;-72
2022/12/17 14:37:46;;;;;;;44.42;22.70;;;;;;;-1.96;67.97;100552.84;342846;28;1904;-72
2022/12/17 14:37:58;;;;;;;45.88;22.90;;;;;;;-1.92;68.03;100552.13;342950;28;1708;-72
2022/12/17 14:38:20;;;;;;;45.08;22.52;;;;;;;-1.87;67.64;100553.09;343555;28;1799;-72
2022/12/17 14:38:57;;;;;;;42.20;21.83;;;;;;;-1.79;67.82;100553.38;342787;28;1612;-73
2022/12/17 14:39:29;;;;;;;42.60;21.70;;;;;;;-1.78;67.51;100558.50;343500;28;1120;-73
2022/12/17 14:39:45;;;;;;;47.30;22.55;;;;;;;-1.75;67.90;100552.66;344133;28;1598;-73
2022/12/17 14:40:01;;;;;;;44.00;21.95;;;;;;;-1.81;68.01;100554.19;345888;28;2133;-73
2022/12/17 14:40:14;;;;;;;45.92;22.45;;;;;;;-1.79;67.57;100550.81;346267;28;1083;-73